createdAt,value
2023-01-13T00:00:53.127Z,15.93
2023-01-13T00:03:56.431Z,15.00
2023-01-13T00:06:58.789Z,14.90
2023-01-13T00:10:01.154Z,15.18
2023-01-13T00:13:04.484Z,15.18
2023-01-13T00:16:08.709Z,15.30
2023-01-13T00:19:11.020Z,13.93
2023-01-13T00:22:13.345Z,13.47
2023-01-13T00:25:15.700Z,13.73
2023-01-13T00:28:18.099Z,14.43
2023-01-13T00:31:21.467Z,14.45
2023-01-13T00:34:24.738Z,14.27
2023-01-13T00:37:27.103Z,14.10
2023-01-13T00:40:29.385Z,13.55
2023-01-13T00:43:32.854Z,14.18
2023-01-13T00:46:35.284Z,14.70
2023-01-13T00:49:37.586Z,13.17
2023-01-13T00:52:42.029Z,15.23
2023-01-13T00:55:44.629Z,15.05
2023-01-13T00:58:47.958Z,18.08
2023-01-13T01:01:50.449Z,18.73
2023-01-13T01:04:52.920Z,21.07
2023-01-13T01:07:55.243Z,18.40
2023-01-13T01:11:08.952Z,15.50
2023-01-13T01:14:13.128Z,13.75
2023-01-13T01:17:15.382Z,14.88
2023-01-13T01:20:17.849Z,14.90
2023-01-13T01:23:20.119Z,15.10
2023-01-13T01:26:26.924Z,15.05
2023-01-13T01:29:29.290Z,15.50
2023-01-13T01:32:34.194Z,13.63
2023-01-13T01:35:40.052Z,13.93
2023-01-13T01:38:42.649Z,13.77
2023-01-13T01:42:04.913Z,14.88
2023-01-13T01:45:24.166Z,14.25
2023-01-13T01:48:27.671Z,13.88
2023-01-13T01:51:32.147Z,14.73
2023-01-13T01:54:53.178Z,13.20
2023-01-13T01:58:00.155Z,13.80
2023-01-13T02:01:04.452Z,13.45
2023-01-13T02:04:12.737Z,13.05
2023-01-13T02:07:15.143Z,13.77
2023-01-13T02:10:20.568Z,15.97
2023-01-13T02:13:23.134Z,16.92
2023-01-13T02:16:25.488Z,17.33
2023-01-13T02:20:09.585Z,12.98
2023-01-13T02:23:58.848Z,13.00
2023-01-13T02:27:10.315Z,13.93
2023-01-13T02:30:37.260Z,12.32
2023-01-13T02:33:46.783Z,12.50
2023-01-13T02:36:54.401Z,11.90
2023-01-13T02:40:24.854Z,12.90
2023-01-13T02:43:55.544Z,12.93
2023-01-13T02:47:01.626Z,11.90
2023-01-13T02:50:10.625Z,11.75
2023-01-13T02:53:34.648Z,12.63
2023-01-13T02:56:40.769Z,11.97
2023-01-13T02:59:43.286Z,11.73
2023-01-13T03:02:45.758Z,12.20
2023-01-13T03:05:51.998Z,12.20
2023-01-13T03:09:02.525Z,11.70
2023-01-13T03:12:19.498Z,12.53
2023-01-13T03:15:37.163Z,12.47
2023-01-13T03:18:48.515Z,11.68
2023-01-13T03:22:23.916Z,12.65
2023-01-13T03:25:57.196Z,12.05
2023-01-13T03:29:30.889Z,11.30
2023-01-13T03:32:34.640Z,13.37
2023-01-13T03:35:40.941Z,11.55
2023-01-13T03:38:51.112Z,11.90
2023-01-13T03:41:57.661Z,12.13
2023-01-13T03:45:10.344Z,13.03
2023-01-13T03:48:16.984Z,12.27
2023-01-13T03:51:19.803Z,11.02
2023-01-13T03:54:23.438Z,12.93
2023-01-13T03:57:30.067Z,12.30
2023-01-13T04:01:00.441Z,12.13
2023-01-13T04:04:08.530Z,11.60
2023-01-13T04:07:27.866Z,11.98
2023-01-13T04:10:45.591Z,11.75
2023-01-13T04:13:48.953Z,11.70
2023-01-13T04:16:51.198Z,11.07
2023-01-13T04:19:53.514Z,9.93
2023-01-13T04:22:55.973Z,11.55
2023-01-13T04:25:58.574Z,10.27
2023-01-13T04:29:00.918Z,10.60
2023-01-13T04:32:03.752Z,10.37
2023-01-13T04:35:08.520Z,12.30
2023-01-13T04:38:17.662Z,10.40
2023-01-13T04:41:20.067Z,9.30
2023-01-13T04:44:22.330Z,8.18
2023-01-13T04:47:24.658Z,9.43
2023-01-13T04:50:27.090Z,8.73
2023-01-13T04:53:29.398Z,9.18
2023-01-13T04:56:32.299Z,9.48
2023-01-13T04:59:34.747Z,8.65
2023-01-13T05:02:38.190Z,9.20
2023-01-13T05:05:40.590Z,8.80
2023-01-13T05:08:42.979Z,8.98
2023-01-13T05:12:03.996Z,8.90
2023-01-13T05:15:25.508Z,14.48
2023-01-13T05:18:30.121Z,12.43
2023-01-13T05:21:51.002Z,8.63
2023-01-13T05:25:12.144Z,8.90
2023-01-13T05:28:17.420Z,8.25
2023-01-13T05:31:20.461Z,8.45
2023-01-13T05:34:22.986Z,9.80
2023-01-13T05:37:29.715Z,8.73
2023-01-13T05:40:50.953Z,9.57
2023-01-13T05:43:53.400Z,10.05
2023-01-13T05:47:04.435Z,10.15
2023-01-13T05:50:10.483Z,10.40
2023-01-13T05:53:13.203Z,9.97
2023-01-13T05:57:31.283Z,9.80
2023-01-13T06:00:47.885Z,10.07
2023-01-13T06:03:54.713Z,10.80
2023-01-13T06:07:13.489Z,10.83
2023-01-13T06:10:16.322Z,9.80
2023-01-13T06:13:41.853Z,9.93
2023-01-13T06:16:45.713Z,10.25
2023-01-13T06:25:29.139Z,9.83
2023-01-13T06:33:44.612Z,10.45
2023-01-13T06:36:50.418Z,10.60
2023-01-13T06:40:11.063Z,10.20
2023-01-13T06:43:17.208Z,10.23
2023-01-13T06:46:22.803Z,10.57
2023-01-13T06:49:25.190Z,10.20
2023-01-13T06:52:33.358Z,10.95
2023-01-13T06:55:40.880Z,12.30
2023-01-13T06:58:43.518Z,11.97
2023-01-13T07:01:53.730Z,11.27
2023-01-13T07:05:31.153Z,10.77
2023-01-13T07:08:51.736Z,10.05
2023-01-13T07:16:49.925Z,10.50
2023-01-13T07:19:52.789Z,12.70
2023-01-13T07:22:56.557Z,9.73
2023-01-13T07:26:00.159Z,10.02
2023-01-13T07:29:05.810Z,10.07
2023-01-13T07:32:08.346Z,9.37
2023-01-13T07:35:10.732Z,10.13
2023-01-13T07:38:13.422Z,10.48
2023-01-13T07:41:34.687Z,10.70
2023-01-13T07:44:42.471Z,11.27
2023-01-13T07:47:44.902Z,11.07
2023-01-13T07:50:49.917Z,12.97
2023-01-13T07:54:11.937Z,10.88
2023-01-13T07:57:24.401Z,12.48
2023-01-13T08:00:27.027Z,11.57
2023-01-13T08:03:33.286Z,10.67
2023-01-13T08:06:47.663Z,9.23
2023-01-13T08:09:56.387Z,10.50
2023-01-13T08:13:17.707Z,9.18
2023-01-13T08:16:21.341Z,9.73
2023-01-13T08:19:31.695Z,10.07
2023-01-13T08:26:16.885Z,9.10
2023-01-13T08:29:21.131Z,8.05
2023-01-13T08:32:23.524Z,8.63
2023-01-13T08:35:32.652Z,7.90
2023-01-13T08:42:13.298Z,8.90
2023-01-13T08:45:28.536Z,8.77
2023-01-13T08:48:35.470Z,8.38
2023-01-13T08:51:44.499Z,8.77
2023-01-13T08:54:51.164Z,8.63
2023-01-13T08:58:00.585Z,9.35
2023-01-13T09:01:14.550Z,8.45
2023-01-13T09:04:19.883Z,7.65
2023-01-13T09:07:27.282Z,7.77
2023-01-13T09:10:31.814Z,6.90
2023-01-13T09:13:34.139Z,6.85
2023-01-13T09:16:36.357Z,6.65
2023-01-13T09:19:40.177Z,7.15
2023-01-13T09:22:52.550Z,7.77
2023-01-13T09:25:55.162Z,7.60
2023-01-13T09:28:57.429Z,8.90
2023-01-13T09:32:02.165Z,9.45
2023-01-13T09:35:15.699Z,9.48
2023-01-13T09:38:19.351Z,8.90
2023-01-13T09:41:48.299Z,7.93
2023-01-13T09:44:57.646Z,7.82
2023-01-13T09:52:26.959Z,8.25
2023-01-13T09:55:35.415Z,9.10
2023-01-13T09:58:56.194Z,8.07
2023-01-13T10:02:22.813Z,8.63
2023-01-13T10:05:39.363Z,8.52
2023-01-13T10:08:45.497Z,16.05
2023-01-13T10:12:19.431Z,8.83
2023-01-13T10:15:27.557Z,9.03
2023-01-13T10:19:10.269Z,9.05
2023-01-13T10:44:22.823Z,9.65
2023-01-13T10:47:36.480Z,9.63
2023-01-13T10:50:39.475Z,8.88
2023-01-13T10:53:46.984Z,10.90
2023-01-13T10:56:50.625Z,11.13
2023-01-13T10:59:55.004Z,9.95
2023-01-13T11:03:20.133Z,10.65
2023-01-13T11:06:48.280Z,10.10
2023-01-13T11:10:09.733Z,10.07
2023-01-13T11:18:41.757Z,10.75
2023-01-13T11:22:09.076Z,10.70
2023-01-13T11:25:20.687Z,10.43
2023-01-13T11:28:49.258Z,11.40
2023-01-13T11:31:56.466Z,10.90
2023-01-13T11:35:21.523Z,11.63
2023-01-13T11:38:56.675Z,10.98
2023-01-13T11:46:51.060Z,11.50
2023-01-13T11:49:53.601Z,10.60
2023-01-13T11:53:42.002Z,12.68
2023-01-13T11:57:25.567Z,13.25
2023-01-13T12:00:47.529Z,11.43
2023-01-13T12:04:13.695Z,13.30
2023-01-13T12:07:51.128Z,10.90
2023-01-13T12:11:28.484Z,12.48
2023-01-13T12:14:52.722Z,11.93
2023-01-13T12:18:13.995Z,11.38
2023-01-13T12:21:36.759Z,12.40
2023-01-13T12:25:01.609Z,12.00
2023-01-13T12:28:33.084Z,14.27
2023-01-13T12:31:41.979Z,14.30
2023-01-13T12:35:30.051Z,13.05
2023-01-13T12:43:56.811Z,13.23
2023-01-13T12:47:09.585Z,13.05
2023-01-13T12:50:27.101Z,13.63
2023-01-13T12:53:36.351Z,13.20
2023-01-13T12:56:42.534Z,14.73
2023-01-13T13:00:05.155Z,13.07
2023-01-13T13:03:19.310Z,13.10
2023-01-13T13:06:29.719Z,12.82
2023-01-13T13:09:38.647Z,12.25
2023-01-13T13:13:04.201Z,12.67
2023-01-13T13:16:44.018Z,14.47
2023-01-13T13:20:22.094Z,12.80
2023-01-13T13:23:54.595Z,12.85
2023-01-13T13:26:57.002Z,13.80
2023-01-13T13:30:27.889Z,13.60
2023-01-13T13:34:06.951Z,14.50
2023-01-13T13:38:03.221Z,13.93
2023-01-13T13:41:39.625Z,14.10
2023-01-13T13:45:25.839Z,14.65
2023-01-13T13:48:31.176Z,13.13
2023-01-13T13:52:02.567Z,13.90
2023-01-13T13:55:19.999Z,13.27
2023-01-13T13:58:23.582Z,13.23
2023-01-13T14:01:39.674Z,13.77
2023-01-13T14:05:13.034Z,12.77
2023-01-13T14:08:26.163Z,13.97
2023-01-13T14:11:33.084Z,13.48
2023-01-13T14:14:35.572Z,14.30
2023-01-13T14:17:38.999Z,13.60
2023-01-13T14:20:42.922Z,13.83
2023-01-13T14:24:15.800Z,14.23
2023-01-13T14:27:19.620Z,12.30
2023-01-13T14:30:23.520Z,13.40
2023-01-13T14:33:40.870Z,15.05
2023-01-13T14:36:44.635Z,14.63
2023-01-13T14:39:47.321Z,14.57
2023-01-13T14:43:04.595Z,14.90
2023-01-13T14:46:15.208Z,14.63
2023-01-13T14:50:01.160Z,13.40
2023-01-13T14:53:05.418Z,15.20
2023-01-13T14:56:56.118Z,16.80
2023-01-13T15:00:22.323Z,14.45
2023-01-13T15:03:24.663Z,13.75
2023-01-13T15:06:34.844Z,15.15
2023-01-13T15:09:41.752Z,16.67
2023-01-13T15:12:47.208Z,17.13
2023-01-13T15:15:56.695Z,16.58
2023-01-13T15:19:00.093Z,16.77
2023-01-13T15:22:09.864Z,15.65
2023-01-13T15:28:53.962Z,14.87
2023-01-13T15:31:56.526Z,15.50
2023-01-13T15:35:25.405Z,15.25
2023-01-13T15:42:34.928Z,14.53
2023-01-13T15:45:56.496Z,13.97
2023-01-13T15:49:02.087Z,14.25
2023-01-13T15:52:12.673Z,15.30
2023-01-13T15:55:15.271Z,13.85
2023-01-13T15:58:21.142Z,12.53
2023-01-13T16:01:26.117Z,12.10
2023-01-13T16:04:37.966Z,14.20
2023-01-13T16:07:43.544Z,14.20
2023-01-13T16:10:50.782Z,12.82
2023-01-13T16:14:00.213Z,13.50
2023-01-13T16:17:16.908Z,13.60
2023-01-13T16:20:19.571Z,14.55
2023-01-13T16:23:23.018Z,12.93
2023-01-13T16:26:27.988Z,13.30
2023-01-13T16:29:30.286Z,13.37
2023-01-13T16:32:32.674Z,12.60
2023-01-13T16:35:35.456Z,14.00
2023-01-13T16:38:57.833Z,12.68
2023-01-13T16:42:00.254Z,13.52
2023-01-13T16:45:08.384Z,13.77
2023-01-13T16:48:19.510Z,13.23
2023-01-13T16:51:22.877Z,12.98
2023-01-13T16:54:25.201Z,13.77
2023-01-13T16:57:27.537Z,15.40
2023-01-13T17:00:29.805Z,16.53
2023-01-13T17:03:36.042Z,14.07
2023-01-13T17:06:58.014Z,14.35
2023-01-13T17:10:00.338Z,16.63
2023-01-13T17:13:14.710Z,40.17
2023-01-13T17:16:22.698Z,21.80
2023-01-13T17:19:25.819Z,16.33
2023-01-13T17:22:28.174Z,14.90
2023-01-13T17:25:30.771Z,14.85
2023-01-13T17:28:33.241Z,15.38
2023-01-13T17:31:36.419Z,13.77
2023-01-13T17:34:40.231Z,14.37
2023-01-13T17:37:42.565Z,14.77
2023-01-13T17:40:45.841Z,14.70
2023-01-13T17:43:48.210Z,15.98
2023-01-13T17:46:50.740Z,16.57
2023-01-13T17:49:53.227Z,16.87
2023-01-13T17:52:55.588Z,18.42
2023-01-13T17:55:58.039Z,20.77
2023-01-13T17:59:00.311Z,25.25
2023-01-13T18:02:03.097Z,18.20
2023-01-13T18:05:05.784Z,16.10
2023-01-13T18:08:08.946Z,16.35
2023-01-13T18:11:11.456Z,14.82
2023-01-13T18:14:13.845Z,15.88
2023-01-13T18:17:17.041Z,14.80
2023-01-13T18:20:38.061Z,14.80
2023-01-13T18:23:58.971Z,14.52
2023-01-13T18:27:23.028Z,14.80
2023-01-13T18:30:25.691Z,14.25
2023-01-13T18:33:28.027Z,14.67
2023-01-13T18:36:30.344Z,14.27
2023-01-13T18:39:32.882Z,14.10
2023-01-13T18:42:51.515Z,14.73
2023-01-13T18:45:53.987Z,15.38
2023-01-13T18:48:56.412Z,18.00
2023-01-13T18:51:58.789Z,14.83
2023-01-13T18:55:01.119Z,16.63
2023-01-13T18:58:03.799Z,16.35
2023-01-13T19:01:06.945Z,15.80
2023-01-13T19:04:15.827Z,17.23
2023-01-13T19:07:23.618Z,16.13
2023-01-13T19:10:28.036Z,16.02
2023-01-13T19:13:30.609Z,14.80
2023-01-13T19:16:32.902Z,15.88
2023-01-13T19:19:43.898Z,15.10
2023-01-13T19:22:53.785Z,16.03
2023-01-13T19:26:08.872Z,15.63
2023-01-13T19:29:11.278Z,15.60
2023-01-13T19:32:13.830Z,15.93
2023-01-13T19:35:18.164Z,17.70
2023-01-13T19:38:20.836Z,17.80
2023-01-13T19:41:41.693Z,18.20
2023-01-13T19:45:02.582Z,16.95
2023-01-13T19:48:07.421Z,17.70
2023-01-13T19:51:10.575Z,15.70
2023-01-13T19:54:12.954Z,16.30
2023-01-13T19:57:15.755Z,15.13
2023-01-13T20:00:20.827Z,15.52
2023-01-13T20:03:25.955Z,14.48
2023-01-13T20:06:28.306Z,16.10
2023-01-13T20:09:31.171Z,16.20
2023-01-13T20:12:33.618Z,15.55
2023-01-13T20:15:38.056Z,14.77
2023-01-13T20:18:40.571Z,16.80
2023-01-13T20:21:43.257Z,15.53
2023-01-13T20:24:45.626Z,15.80
2023-01-13T20:27:48.316Z,17.40
2023-01-13T20:30:50.880Z,16.88
2023-01-13T20:33:53.248Z,17.95
2023-01-13T20:36:55.615Z,17.63
2023-01-13T20:40:01.490Z,17.40
2023-01-13T20:43:04.318Z,18.85
2023-01-13T20:46:06.595Z,18.88
2023-01-13T20:49:12.480Z,18.52
2023-01-13T20:52:14.752Z,18.70
2023-01-13T20:55:17.115Z,18.27
2023-01-13T20:58:19.543Z,20.42
2023-01-13T21:01:22.340Z,18.88
2023-01-13T21:04:24.943Z,20.90
2023-01-13T21:07:28.410Z,20.77
2023-01-13T21:10:30.759Z,19.97
2023-01-13T21:13:51.604Z,21.15
2023-01-13T21:16:53.902Z,19.90
2023-01-13T21:19:56.564Z,19.42
2023-01-13T21:22:59.619Z,20.67
2023-01-13T21:26:01.974Z,20.30
2023-01-13T21:29:04.511Z,21.25
2023-01-13T21:32:06.921Z,20.75
2023-01-13T21:35:09.543Z,22.13
2023-01-13T21:38:12.254Z,22.23
2023-01-13T21:41:15.153Z,21.60
2023-01-13T21:44:38.555Z,20.88
2023-01-13T21:47:49.848Z,19.80
2023-01-13T21:50:52.251Z,20.25
2023-01-13T21:53:55.296Z,18.63
2023-01-13T21:56:57.610Z,21.07
2023-01-13T21:59:59.985Z,18.55
2023-01-13T22:03:04.402Z,18.67
2023-01-13T22:06:06.903Z,17.77
2023-01-13T22:09:09.144Z,18.87
2023-01-13T22:12:11.558Z,18.80
2023-01-13T22:15:15.679Z,18.75
2023-01-13T22:18:20.993Z,18.88
2023-01-13T22:21:23.299Z,19.45
2023-01-13T22:24:25.766Z,20.20
2023-01-13T22:27:29.216Z,18.60
2023-01-13T22:30:32.710Z,19.15
2023-01-13T22:33:35.074Z,19.08
2023-01-13T22:36:37.471Z,19.27
2023-01-13T22:39:39.795Z,19.57
2023-01-13T22:42:42.995Z,20.20
2023-01-13T22:45:45.427Z,19.42
2023-01-13T22:48:48.472Z,20.00
2023-01-13T22:51:50.936Z,20.05
2023-01-13T22:54:53.269Z,20.00
2023-01-13T22:57:55.587Z,19.93
2023-01-13T23:01:08.447Z,20.48
2023-01-13T23:04:13.287Z,19.42
2023-01-13T23:07:15.670Z,21.85
2023-01-13T23:10:18.161Z,22.20
2023-01-13T23:13:20.446Z,20.20
2023-01-13T23:16:22.937Z,22.27
2023-01-13T23:19:25.299Z,20.63
2023-01-13T23:22:28.013Z,21.42
2023-01-13T23:25:30.257Z,21.90
2023-01-13T23:28:33.470Z,20.73
2023-01-13T23:31:35.914Z,20.00
2023-01-13T23:34:38.849Z,21.35
2023-01-13T23:37:42.032Z,21.67
2023-01-13T23:40:45.421Z,21.10
2023-01-13T23:43:52.690Z,20.10
2023-01-13T23:46:55.041Z,21.98
2023-01-13T23:49:57.978Z,23.15
2023-01-13T23:53:00.303Z,23.40
2023-01-13T23:56:04.685Z,22.73
2023-01-13T23:59:08.076Z,20.97
